Observation data for Muleshoe on 05/15/2018      Previous  Date  Next       Current Mesonet Observations  Soil Data  Daily Summary Page  Observations in Plain Language
KMUS 150500Z 11011KT 20/12 A2995 RMK A01 T01980122  RH  064%=      5-min Rain = 0
KMUS 150505Z 11012KT 20/12 A2995 RMK A01 T01980123  RH  064%=      5-min Rain = 0
KMUS 150510Z 11012KT 20/12 A2995 RMK A01 T01990123  RH  064%=      5-min Rain = 0
KMUS 150515Z 11011KT 20/12 A2995 RMK A01 T01990123  RH  064%=      5-min Rain = 0
KMUS 150520Z 11011KT 20/12 A2995 RMK A01 T01990123  RH  064%=      5-min Rain = 0
KMUS 150525Z 11013KT 20/12 A2995 RMK A01 T01970123  RH  065%=      5-min Rain = 0
KMUS 150530Z 12012KT 20/12 A2996 RMK A01 T01980123  RH  064%=      5-min Rain = 0
KMUS 150535Z 12011KT 20/12 A2996 RMK A01 T01990123  RH  064%=      5-min Rain = 0
KMUS 150540Z 12012KT 20/12 A2995 RMK A01 T01980122  RH  064%=      5-min Rain = 0
KMUS 150545Z 12014KT 20/12 A2996 RMK A01 T01990122  RH  063%=      5-min Rain = 0
KMUS 150550Z 12012KT 20/12 A2996 RMK A01 T01990121  RH  063%=      5-min Rain = 0
KMUS 150555Z 13012KT 20/12 A2996 RMK A01 T01990121  RH  063%=      5-min Rain = 0
KMUS 150600Z 13012G17KT 20/12 A2995 RMK A01 T02000120  RH  062%=      5-min Rain = 0
KMUS 150605Z 13012G17KT 20/12 A2995 RMK A01 T02010118  RH  061%=      5-min Rain = 0
KMUS 150610Z 13012KT 20/12 A2996 RMK A01 T02010118  RH  061%=      5-min Rain = 0
KMUS 150615Z 12010KT 20/12 A2996 RMK A01 T02010119  RH  061%=      5-min Rain = 0
KMUS 150620Z 12009KT 20/12 A2996 RMK A01 T01990118  RH  062%=      5-min Rain = 0
KMUS 150625Z 12008KT 20/12 A2996 RMK A01 T01970117  RH  062%=      5-min Rain = 0
KMUS 150630Z 13008KT 20/12 A2996 RMK A01 T01950115  RH  062%=      5-min Rain = 0
KMUS 150635Z 13010KT 20/11 A2996 RMK A01 T01960113  RH  061%=      5-min Rain = 0
KMUS 150640Z 13011KT 20/11 A2996 RMK A01 T01990113  RH  059%=      5-min Rain = 0
KMUS 150645Z 13009G14KT 20/11 A2996 RMK A01 T02010114  RH  059%=      5-min Rain = 0
KMUS 150650Z 13009G14KT 20/11 A2996 RMK A01 T01990114  RH  060%=      5-min Rain = 0
KMUS 150655Z 13009KT 20/11 A2996 RMK A01 T01980114  RH  060%=      5-min Rain = 0
KMUS 150700Z 14009KT 20/12 A2996 RMK A01 T01970115  RH  061%=      5-min Rain = 0
KMUS 150705Z 14009KT 20/12 A2996 RMK A01 T01960116  RH  062%=      5-min Rain = 0
KMUS 150710Z 14009KT 19/12 A2996 RMK A01 T01940117  RH  063%=      5-min Rain = 0
KMUS 150715Z 14009KT 19/12 A2996 RMK A01 T01930118  RH  064%=      5-min Rain = 0
KMUS 150720Z 13008KT 19/12 A2996 RMK A01 T01910118  RH  065%=      5-min Rain = 0
KMUS 150725Z 12008KT 19/12 A2996 RMK A01 T01880119  RH  066%=      5-min Rain = 0
KMUS 150730Z 12008KT 18/12 A2996 RMK A01 T01840118  RH  068%=      5-min Rain = 0
KMUS 150735Z 12007KT 18/12 A2996 RMK A01 T01790118  RH  070%=      5-min Rain = 0
KMUS 150740Z 12008KT 18/12 A2996 RMK A01 T01780120  RH  071%=      5-min Rain = 0
KMUS 150745Z 13009KT 18/12 A2996 RMK A01 T01790121  RH  072%=      5-min Rain = 0
KMUS 150750Z 14010KT 18/12 A2996 RMK A01 T01810121  RH  071%=      5-min Rain = 0
KMUS 150755Z 15010KT 18/12 A2996 RMK A01 T01840119  RH  068%=      5-min Rain = 0
KMUS 150800Z 16008KT 18/12 A2996 RMK A01 T01830118  RH  068%=      5-min Rain = 0
KMUS 150805Z 16007KT 18/12 A2996 RMK A01 T01810116  RH  068%=      5-min Rain = 0
KMUS 150810Z 14007KT 18/11 A2996 RMK A01 T01790113  RH  068%=      5-min Rain = 0
KMUS 150815Z 13006KT 18/11 A2996 RMK A01 T01770112  RH  068%=      5-min Rain = 0
KMUS 150820Z 14006KT 18/11 A2996 RMK A01 T01750111  RH  068%=      5-min Rain = 0
KMUS 150825Z 17008KT 18/11 A2996 RMK A01 T01770110  RH  067%=      5-min Rain = 0
KMUS 150830Z 18009KT 18/11 A2995 RMK A01 T01800108  RH  065%=      5-min Rain = 0
KMUS 150835Z 15009KT 18/11 A2996 RMK A01 T01790108  RH  065%=      5-min Rain = 0
KMUS 150840Z 13008KT 17/11 A2996 RMK A01 T01740109  RH  068%=      5-min Rain = 0
KMUS 150845Z 16008KT 17/11 A2996 RMK A01 T01720112  RH  070%=      5-min Rain = 0
KMUS 150850Z 17009KT 17/11 A2996 RMK A01 T01740113  RH  070%=      5-min Rain = 0
KMUS 150855Z 16007KT 17/11 A2996 RMK A01 T01710112  RH  071%=      5-min Rain = 0
KMUS 150900Z 14005KT 17/11 A2996 RMK A01 T01690113  RH  072%=      5-min Rain = 0
KMUS 150905Z 13004KT 17/11 A2996 RMK A01 T01660114  RH  074%=      5-min Rain = 0
KMUS 150910Z 12004KT 17/12 A2996 RMK A01 T01650115  RH  075%=      5-min Rain = 0
KMUS 150915Z 13005KT 16/12 A2996 RMK A01 T01630116  RH  076%=      5-min Rain = 0
KMUS 150920Z 15005KT 16/12 A2996 RMK A01 T01620118  RH  078%=      5-min Rain = 0
KMUS 150925Z 18006KT 16/12 A2995 RMK A01 T01630121  RH  079%=      5-min Rain = 0
KMUS 150930Z 19006KT 16/12 A2995 RMK A01 T01630121  RH  079%=      5-min Rain = 0
KMUS 150935Z 19009G16KT 16/13 A2995 RMK A01 T01640127  RH  082%=      5-min Rain = 0
KMUS 150940Z 19012G17KT 17/14 A2995 RMK A01 T01710135  RH  082%=      5-min Rain = 0
KMUS 150945Z 19014G20KT 18/14 A2994 RMK A01 T01760138  RH  082%=      5-min Rain = 0
KMUS 150950Z 19015G21KT 18/14 A2994 RMK A01 T01770140  RH  082%=      5-min Rain = 0
KMUS 150955Z 19015G21KT 18/14 A2994 RMK A01 T01780141  RH  082%=      5-min Rain = 0
KMUS 151000Z 19016G21KT 18/14 A2995 RMK A01 T01770142  RH  083%=      5-min Rain = 0
KMUS 151005Z 20016KT 18/14 A2995 RMK A01 T01760142  RH  084%=      5-min Rain = 0
KMUS 151010Z 19014G19KT 18/14 A2995 RMK A01 T01760143  RH  085%=      5-min Rain = 0
KMUS 151015Z 19014KT 18/14 A2995 RMK A01 T01750144  RH  086%=      5-min Rain = 0
KMUS 151020Z 19014G19KT 17/14 A2995 RMK A01 T01740144  RH  086%=      5-min Rain = 0
KMUS 151025Z 19013KT 17/14 A2995 RMK A01 T01730144  RH  087%=      5-min Rain = 0
KMUS 151030Z 20014KT 17/14 A2996 RMK A01 T01710144  RH  088%=      5-min Rain = 0
KMUS 151035Z 19014KT 17/15 A2996 RMK A01 T01710145  RH  088%=      5-min Rain = 0
KMUS 151040Z 19014KT 17/15 A2996 RMK A01 T01710146  RH  089%=      5-min Rain = 0
KMUS 151045Z 19013G19KT 17/15 A2996 RMK A01 T01700146  RH  090%=      5-min Rain = 0
KMUS 151050Z 19015KT 17/15 A2995 RMK A01 T01700147  RH  090%=      5-min Rain = 0
KMUS 151055Z 20014G20KT 17/15 A2995 RMK A01 T01690148  RH  091%=      5-min Rain = 0
KMUS 151100Z 19014KT 17/15 A2996 RMK A01 T01690148  RH  091%=      5-min Rain = 0
KMUS 151105Z 19013G18KT 17/15 A2996 RMK A01 T01680147  RH  092%=      5-min Rain = 0
KMUS 151110Z 19012KT 17/15 A2996 RMK A01 T01660147  RH  092%=      5-min Rain = 0
KMUS 151115Z 20012KT 16/15 A2996 RMK A01 T01640146  RH  093%=      5-min Rain = 0
KMUS 151120Z 20011KT 16/15 A2996 RMK A01 T01630145  RH  093%=      5-min Rain = 0
KMUS 151125Z 20011KT 16/15 A2997 RMK A01 T01620145  RH  094%=      5-min Rain = 0
KMUS 151130Z 21011KT 16/15 A2997 RMK A01 T01620145  RH  094%=      5-min Rain = 0
KMUS 151135Z 21012KT 16/15 A2997 RMK A01 T01630146  RH  094%=      5-min Rain = 0
KMUS 151140Z 21012KT 16/15 A2997 RMK A01 T01630145  RH  093%=      5-min Rain = 0
KMUS 151145Z 21011KT 16/15 A2997 RMK A01 T01630145  RH  093%=      5-min Rain = 0
KMUS 151150Z 21009KT 16/14 A2997 RMK A01 T01620144  RH  093%=      5-min Rain = 0
KMUS 151155Z 21009KT 16/14 A2998 RMK A01 T01620144  RH  093%=      5-min Rain = 0
KMUS 151200Z 22009KT 16/14 A2998 RMK A01 T01620144  RH  093%=      5-min Rain = 0
KMUS 151205Z 22009KT 16/15 A2998 RMK A01 T01620145  RH  094%=      5-min Rain = 0
KMUS 151210Z 23008KT 16/15 A2998 RMK A01 T01620145  RH  093%=      5-min Rain = 0
KMUS 151215Z 23008KT 16/15 A2998 RMK A01 T01630145  RH  093%=      5-min Rain = 0
KMUS 151220Z 23009KT 16/15 A2998 RMK A01 T01640146  RH  093%=      5-min Rain = 0
KMUS 151225Z 23007KT 17/15 A2999 RMK A01 T01660147  RH  092%=      5-min Rain = 0
KMUS 151230Z 24007KT 17/15 A2999 RMK A01 T01660146  RH  092%=      5-min Rain = 0
KMUS 151235Z 24008KT 17/15 A2999 RMK A01 T01670145  RH  091%=      5-min Rain = 0
KMUS 151240Z 24007KT 17/15 A30 RMK A01 T01680145  RH  090%=      5-min Rain = 0
KMUS 151245Z 26009G15KT 17/14 A30 RMK A01 T01680144  RH  090%=      5-min Rain = 0
KMUS 151250Z 31015G23KT 17/14 A3003 RMK A01 T01690139  RH  086%=      5-min Rain = 0
KMUS 151255Z 31011G16KT 17/13 A3002 RMK A01 T01710131  RH  081%=      5-min Rain = 0
KMUS 151300Z 30011G20KT 17/13 A3003 RMK A01 T01740128  RH  077%=      5-min Rain = 0
KMUS 151305Z 28011KT 18/13 A3002 RMK A01 T01770125  RH  074%=      5-min Rain = 0
KMUS 151310Z 28011KT 18/12 A3003 RMK A01 T01770123  RH  073%=      5-min Rain = 0
KMUS 151315Z 28009KT 18/12 A3003 RMK A01 T01820124  RH  072%=      5-min Rain = 0
KMUS 151320Z 25009KT 19/12 A3003 RMK A01 T01880124  RH  069%=      5-min Rain = 0
KMUS 151325Z 26009KT 19/12 A3003 RMK A01 T01910123  RH  067%=      5-min Rain = 0
KMUS 151330Z 25010KT 19/12 A3003 RMK A01 T01930121  RH  065%=      5-min Rain = 0
KMUS 151335Z 25009KT 19/12 A3003 RMK A01 T01940121  RH  065%=      5-min Rain = 0
KMUS 151340Z 26010KT 20/12 A3003 RMK A01 T01970118  RH  062%=      5-min Rain = 0
KMUS 151345Z 26010KT 20/12 A3003 RMK A01 T01960115  RH  062%=      5-min Rain = 0
KMUS 151350Z 27009KT 19/12 A3003 RMK A01 T01930115  RH  063%=      5-min Rain = 0
KMUS 151355Z 27008KT 20/12 A3004 RMK A01 T01970115  RH  061%=      5-min Rain = 0
KMUS 151400Z 29008KT 20/11 A3004 RMK A01 T02010114  RH  059%=      5-min Rain = 0
KMUS 151405Z 30012G18KT 21/10 A3004 RMK A01 T02060096  RH  051%=      5-min Rain = 0
KMUS 151410Z 31012KT 21/09 A3004 RMK A01 T02070091  RH  049%=      5-min Rain = 0
KMUS 151415Z 32012KT 21/09 A3004 RMK A01 T02080094  RH  049%=      5-min Rain = 0
KMUS 151420Z 33012KT 21/10 A3004 RMK A01 T02080097  RH  050%=      5-min Rain = 0
KMUS 151425Z 33012KT 21/10 A3005 RMK A01 T02080102  RH  052%=      5-min Rain = 0
KMUS 151430Z 34012KT 21/11 A3004 RMK A01 T02080107  RH  054%=      5-min Rain = 0
KMUS 151435Z 34012G17KT 21/11 A3005 RMK A01 T02080112  RH  056%=      5-min Rain = 0
KMUS 151440Z 34012KT 21/11 A3005 RMK A01 T02080112  RH  056%=      5-min Rain = 0
KMUS 151445Z 35011KT 21/11 A3005 RMK A01 T02090113  RH  056%=      5-min Rain = 0
KMUS 151450Z 35012KT 21/11 A3005 RMK A01 T02130113  RH  055%=      5-min Rain = 0
KMUS 151455Z 00011G16KT 22/11 A3005 RMK A01 T02160113  RH  054%=      5-min Rain = 0
KMUS 151500Z 35011G16KT 22/11 A3005 RMK A01 T02180112  RH  053%=      5-min Rain = 0
KMUS 151505Z 35011G16KT 22/11 A3005 RMK A01 T02220114  RH  052%=      5-min Rain = 0
KMUS 151510Z 35010G15KT 23/12 A3005 RMK A01 T02250116  RH  052%=      5-min Rain = 0
KMUS 151515Z 36014G19KT 23/12 A3005 RMK A01 T02260116  RH  052%=      5-min Rain = 0
KMUS 151520Z 01011G16KT 23/12 A3005 RMK A01 T02260118  RH  052%=      5-min Rain = 0
KMUS 151525Z 01011G16KT 23/12 A3005 RMK A01 T02320120  RH  051%=      5-min Rain = 0
KMUS 151530Z 36012G17KT 23/12 A3005 RMK A01 T02340121  RH  051%=      5-min Rain = 0
KMUS 151535Z 36013KT 23/12 A3006 RMK A01 T02330121  RH  051%=      5-min Rain = 0
KMUS 151540Z 01010G15KT 24/13 A3006 RMK A01 T02370125  RH  051%=      5-min Rain = 0
KMUS 151545Z 36013G18KT 24/13 A3006 RMK A01 T02380125  RH  051%=      5-min Rain = 0
KMUS 151550Z 36014KT 24/13 A3006 RMK A01 T02380127  RH  052%=      5-min Rain = 0
KMUS 151555Z 01012KT 24/13 A3006 RMK A01 T02420130  RH  052%=      5-min Rain = 0
KMUS 151600Z 02013G20KT 25/13 A3006 RMK A01 T02450130  RH  051%=      5-min Rain = 0
KMUS 151605Z 01014G19KT 25/13 A3006 RMK A01 T02460130  RH  051%=      5-min Rain = 0
KMUS 151610Z 01013KT 25/13 A3006 RMK A01 T02460131  RH  051%=      5-min Rain = 0
KMUS 151615Z 02014KT 25/13 A3006 RMK A01 T02470131  RH  050%=      5-min Rain = 0
KMUS 151620Z 02012G17KT 25/13 A3006 RMK A01 T02490129  RH  049%=      5-min Rain = 0
KMUS 151625Z 04013G19KT 25/13 A3006 RMK A01 T02510131  RH  049%=      5-min Rain = 0
KMUS 151630Z 02012KT 25/13 A3006 RMK A01 T02510129  RH  049%=      5-min Rain = 0
KMUS 151635Z 03010KT 26/13 A3006 RMK A01 T02550129  RH  047%=      5-min Rain = 0
KMUS 151640Z 02012G18KT 26/13 A3006 RMK A01 T02590129  RH  046%=      5-min Rain = 0
KMUS 151645Z 03012G19KT 26/13 A3006 RMK A01 T02590129  RH  046%=      5-min Rain = 0
KMUS 151650Z 02013G19KT 26/13 A3006 RMK A01 T02580128  RH  046%=      5-min Rain = 0
KMUS 151655Z 04012G18KT 26/13 A3007 RMK A01 T02600128  RH  046%=      5-min Rain = 0
KMUS 151700Z 03010G17KT 26/13 A3007 RMK A01 T02620127  RH  045%=      5-min Rain = 0
KMUS 151705Z 03012G17KT 26/13 A3007 RMK A01 T02610127  RH  045%=      5-min Rain = 0
KMUS 151710Z 04012G19KT 26/13 A3007 RMK A01 T02610125  RH  044%=      5-min Rain = 0
KMUS 151715Z 04011G17KT 26/12 A3007 RMK A01 T02620123  RH  044%=      5-min Rain = 0
KMUS 151720Z 03011G18KT 27/13 A3007 RMK A01 T02680125  RH  043%=      5-min Rain = 0
KMUS 151725Z 03011G17KT 27/13 A3007 RMK A01 T02680125  RH  043%=      5-min Rain = 0
KMUS 151730Z 02012KT 27/12 A3007 RMK A01 T02690116  RH  040%=      5-min Rain = 0
KMUS 151735Z 02010G17KT 27/12 A3007 RMK A01 T02700115  RH  039%=      5-min Rain = 0
KMUS 151740Z 03010G16KT 27/12 A3007 RMK A01 T02700118  RH  040%=      5-min Rain = 0
KMUS 151745Z 04010G17KT 27/12 A3007 RMK A01 T02710120  RH  040%=      5-min Rain = 0
KMUS 151750Z 03012G19KT 27/12 A3006 RMK A01 T02740119  RH  040%=      5-min Rain = 0
KMUS 151755Z 05012G19KT 27/12 A3006 RMK A01 T02740118  RH  039%=      5-min Rain = 0
KMUS 151800Z 05010G15KT 27/12 A3006 RMK A01 T02740119  RH  040%=      5-min Rain = 0
KMUS 151805Z 05010G16KT 27/12 A3006 RMK A01 T02740117  RH  039%=      5-min Rain = 0
KMUS 151810Z 02010G16KT 28/11 A3006 RMK A01 T02760114  RH  038%=      5-min Rain = 0
KMUS 151815Z 04010G17KT 28/12 A3006 RMK A01 T02790115  RH  037%=      5-min Rain = 0
KMUS 151820Z 04010KT 28/11 A3006 RMK A01 T02790114  RH  037%=      5-min Rain = 0
KMUS 151825Z 04009KT 28/11 A3006 RMK A01 T02770110  RH  036%=      5-min Rain = 0
KMUS 151830Z 02011KT 28/11 A3006 RMK A01 T02810110  RH  036%=      5-min Rain = 0
KMUS 151835Z 05010G15KT 28/11 A3006 RMK A01 T02820110  RH  036%=      5-min Rain = 0
KMUS 151840Z 05010G17KT 28/11 A3005 RMK A01 T02810109  RH  036%=      5-min Rain = 0
KMUS 151845Z 07007KT 28/11 A3005 RMK A01 T02820106  RH  034%=      5-min Rain = 0
KMUS 151850Z 03007G12KT 29/11 A3005 RMK A01 T02870107  RH  034%=      5-min Rain = 0
KMUS 151855Z 05012G18KT 29/11 A3005 RMK A01 T02890110  RH  034%=      5-min Rain = 0
KMUS 151900Z 03010G15KT 29/11 A3005 RMK A01 T02870109  RH  034%=      5-min Rain = 0
KMUS 151905Z 06006G11KT 29/11 A3005 RMK A01 T02860110  RH  035%=      5-min Rain = 0
KMUS 151910Z 05013KT 29/11 A3005 RMK A01 T02880114  RH  035%=      5-min Rain = 0
KMUS 151915Z 05009G15KT 29/11 A3004 RMK A01 T02900111  RH  034%=      5-min Rain = 0
KMUS 151920Z 06011G16KT 29/12 A3004 RMK A01 T02890117  RH  036%=      5-min Rain = 0
KMUS 151925Z 03012KT 29/11 A3004 RMK A01 T02910114  RH  035%=      5-min Rain = 0
KMUS 151930Z 06011G17KT 29/11 A3004 RMK A01 T02890114  RH  035%=      5-min Rain = 0
KMUS 151935Z 05008G15KT 29/11 A3004 RMK A01 T02890111  RH  034%=      5-min Rain = 0
KMUS 151940Z 05006KT 29/11 A3004 RMK A01 T02880108  RH  034%=      5-min Rain = 0
KMUS 151945Z 06010G15KT 29/12 A3004 RMK A01 T02900117  RH  036%=      5-min Rain = 0
KMUS 151950Z 06008G13KT 29/12 A3004 RMK A01 T02930117  RH  035%=      5-min Rain = 0
KMUS 151955Z 07011KT 29/12 A3004 RMK A01 T02940115  RH  034%=      5-min Rain = 0
KMUS 152000Z 08008G14KT 29/11 A3004 RMK A01 T02930112  RH  034%=      5-min Rain = 0
KMUS 152005Z 03007G12KT 29/11 A3003 RMK A01 T02930114  RH  034%=      5-min Rain = 0
KMUS 152010Z 06008G13KT 29/12 A3003 RMK A01 T02900117  RH  036%=      5-min Rain = 0
KMUS 152015Z 07005G10KT 29/11 A3003 RMK A01 T02910113  RH  034%=      5-min Rain = 0
KMUS 152020Z 06009G15KT 30/11 A3003 RMK A01 T02970114  RH  033%=      5-min Rain = 0
KMUS 152025Z 04010KT 30/11 A3003 RMK A01 T02970109  RH  032%=      5-min Rain = 0
KMUS 152030Z 01006KT 29/11 A3002 RMK A01 T02930108  RH  033%=      5-min Rain = 0
KMUS 152035Z 35005KT 30/11 A3002 RMK A01 T02970107  RH  032%=      5-min Rain = 0
KMUS 152040Z 05007KT 30/11 A3002 RMK A01 T03010105  RH  031%=      5-min Rain = 0
KMUS 152045Z 07008G14KT 30/11 A3002 RMK A01 T03040105  RH  030%=      5-min Rain = 0
KMUS 152050Z 08006G12KT 30/11 A3001 RMK A01 T03000106  RH  031%=      5-min Rain = 0
KMUS 152055Z 04008KT 30/10 A3001 RMK A01 T02970104  RH  031%=      5-min Rain = 0
KMUS 152100Z 09005G10KT 30/10 A3001 RMK A01 T02970099  RH  030%=      5-min Rain = 0
KMUS 152105Z 04003KT 30/10 A30 RMK A01 T02980100  RH  030%=      5-min Rain = 0
KMUS 152110Z 11003KT 30/10 A30 RMK A01 T02990096  RH  029%=      5-min Rain = 0
KMUS 152115Z 05007KT 30/10 A30 RMK A01 T03010102  RH  030%=      5-min Rain = 0
KMUS 152120Z 08011KT 30/10 A30 RMK A01 T03010103  RH  030%=      5-min Rain = 0
KMUS 152125Z 10008G13KT 29/10 A2999 RMK A01 T02940103  RH  032%=      5-min Rain = 0
KMUS 152130Z 08009G17KT 30/10 A2999 RMK A01 T02990103  RH  031%=      5-min Rain = 0
KMUS 152135Z 10006G13KT 30/10 A2999 RMK A01 T02990099  RH  030%=      5-min Rain = 0
KMUS 152140Z 10007KT 29/10 A2999 RMK A01 T02940098  RH  031%=      5-min Rain = 0
KMUS 152145Z 11010G15KT 29/10 A2998 RMK A01 T02910100  RH  031%=      5-min Rain = 0
KMUS 152150Z 11010KT 29/10 A2998 RMK A01 T02890098  RH  031%=      5-min Rain = 0
KMUS 152155Z 11009KT 29/10 A2998 RMK A01 T02880096  RH  031%=      5-min Rain = 0
KMUS 152200Z 09010G15KT 29/10 A2998 RMK A01 T02890101  RH  032%=      5-min Rain = 0
KMUS 152205Z 09009KT 29/10 A2998 RMK A01 T02920101  RH  031%=      5-min Rain = 0
KMUS 152210Z 09008KT 30/10 A2997 RMK A01 T02950100  RH  031%=      5-min Rain = 0
KMUS 152215Z 07008KT 30/10 A2997 RMK A01 T02970099  RH  030%=      5-min Rain = 0
KMUS 152220Z 07007KT 29/10 A2996 RMK A01 T02940098  RH  030%=      5-min Rain = 0
KMUS 152225Z 07011KT 29/10 A2996 RMK A01 T02880103  RH  033%=      5-min Rain = 0
KMUS 152230Z 08009G14KT 29/10 A2996 RMK A01 T02880101  RH  032%=      5-min Rain = 0
KMUS 152235Z 09008KT 29/10 A2996 RMK A01 T02890101  RH  032%=      5-min Rain = 0
KMUS 152240Z 09007KT 29/10 A2996 RMK A01 T02870100  RH  032%=      5-min Rain = 0
KMUS 152245Z 08008KT 29/10 A2996 RMK A01 T02920101  RH  031%=      5-min Rain = 0
KMUS 152250Z 07007KT 30/10 A2996 RMK A01 T02960098  RH  030%=      5-min Rain = 0
KMUS 152255Z 09009KT 30/10 A2996 RMK A01 T02960100  RH  031%=      5-min Rain = 0
KMUS 152300Z 08008KT 30/10 A2995 RMK A01 T02960100  RH  031%=      5-min Rain = 0
KMUS 152305Z 08008KT 30/10 A2995 RMK A01 T02970100  RH  030%=      5-min Rain = 0
KMUS 152310Z 14006G11KT 30/10 A2994 RMK A01 T03000098  RH  029%=      5-min Rain = 0
KMUS 152315Z 12007KT 30/10 A2994 RMK A01 T03010097  RH  029%=      5-min Rain = 0
KMUS 152320Z 10004KT 30/10 A2994 RMK A01 T02970097  RH  030%=      5-min Rain = 0
KMUS 152325Z 09005G10KT 30/10 A2994 RMK A01 T02990099  RH  030%=      5-min Rain = 0
KMUS 152330Z 09006KT 30/10 A2993 RMK A01 T02990098  RH  030%=      5-min Rain = 0
KMUS 152335Z 10008KT 30/10 A2993 RMK A01 T02990099  RH  030%=      5-min Rain = 0
KMUS 152340Z 15008KT 30/09 A2993 RMK A01 T02990093  RH  029%=      5-min Rain = 0
KMUS 152345Z 10009G14KT 30/10 A2993 RMK A01 T03020097  RH  029%=      5-min Rain = 0
KMUS 152350Z 11010KT 30/10 A2993 RMK A01 T03010099  RH  030%=      5-min Rain = 0
KMUS 152355Z 12014KT 30/10 A2993 RMK A01 T02990102  RH  031%=      5-min Rain = 0
KMUS 160000Z 08011KT 29/10 A2993 RMK A01 T02930104  RH  032%=      5-min Rain = 0
KMUS 160005Z 09013G19KT 29/11 A2992 RMK A01 T02930107  RH  033%=      5-min Rain = 0
KMUS 160010Z 11015KT 29/12 A2992 RMK A01 T02900118  RH  036%=      5-min Rain = 0
KMUS 160015Z 12017G22KT 29/12 A2991 RMK A01 T02870121  RH  037%=      5-min Rain = 0
KMUS 160020Z 13014KT 28/12 A299 RMK A01 T02840123  RH  038%=      5-min Rain = 0
KMUS 160025Z 12013G18KT 28/12 A299 RMK A01 T02830124  RH  039%=      5-min Rain = 0
KMUS 160030Z 12013G18KT 28/12 A2992 RMK A01 T02830124  RH  039%=      5-min Rain = 0
KMUS 160035Z 12013G18KT 28/12 A2992 RMK A01 T02840124  RH  039%=      5-min Rain = 0
KMUS 160040Z 12014KT 28/11 A2992 RMK A01 T02820114  RH  037%=      5-min Rain = 0
KMUS 160045Z 11014KT 28/11 A2992 RMK A01 T02830113  RH  036%=      5-min Rain = 0
KMUS 160050Z 12014KT 28/11 A2992 RMK A01 T02820114  RH  037%=      5-min Rain = 0
KMUS 160055Z 11014KT 28/12 A2993 RMK A01 T02810115  RH  037%=      5-min Rain = 0
KMUS 160100Z 10014G21KT 28/12 A2994 RMK A01 T02810116  RH  037%=      5-min Rain = 0
KMUS 160105Z 11021G29KT 27/14 A2996 RMK A01 T02650140  RH  048%=      5-min Rain = 0
KMUS 160110Z 06020G32KT 24/13 A2998 RMK A01 T02390132  RH  053%=      5-min Rain = 0
KMUS 160115Z 04018G27KT 20/13 A2998 RMK A01 T02040130  RH  065%=      5-min Rain = 0
KMUS 160120Z 05018G25KT 21/13 A2998 RMK A01 T02100127  RH  061%=      5-min Rain = 0
KMUS 160125Z 06014G23KT 22/12 A2997 RMK A01 T02170123  RH  057%=      5-min Rain = 0
KMUS 160130Z 03013G18KT 20/12 A2998 RMK A01 T02020124  RH  064%=      5-min Rain = 0
KMUS 160135Z 04013G18KT 20/13 A2998 RMK A01 T02010127  RH  065%=      5-min Rain = 0
KMUS 160140Z 03015G24KT 20/12 A2999 RMK A01 T01960124  RH  066%=      5-min Rain = 0
KMUS 160145Z 05016G22KT 18/13 A2999 RMK A01 T01830125  RH  072%=      5-min Rain = 0
KMUS 160150Z 05012KT 18/13 A30 RMK A01 T01760125  RH  075%=      5-min Rain = 0
KMUS 160155Z 04011KT 17/12 A3001 RMK A01 T01740122  RH  074%=      5-min Rain = 0
KMUS 160200Z 05012KT 17/12 A3002 RMK A01 T01690121  RH  076%=      5-min Rain = 0
KMUS 160205Z 05013G21KT 16/12 A3002 RMK A01 T01640117  RH  076%=      5-min Rain = 0
KMUS 160210Z 06013G19KT 17/11 A3002 RMK A01 T01660109  RH  072%=      5-min Rain = 0
KMUS 160215Z 07010G15KT 17/11 A3001 RMK A01 T01670108  RH  070%=      5-min Rain = 0
KMUS 160220Z 07008G13KT 17/11 A3002 RMK A01 T01670108  RH  070%=      5-min Rain = 0
KMUS 160225Z 08008KT 17/11 A3002 RMK A01 T01660107  RH  070%=      5-min Rain = 0
KMUS 160230Z 08009G14KT 16/11 A3002 RMK A01 T01640105  RH  071%=      5-min Rain = 0
KMUS 160235Z 08011KT 16/10 A3002 RMK A01 T01620102  RH  070%=      5-min Rain = 0
KMUS 160240Z 07008KT 16/10 A3002 RMK A01 T01610101  RH  070%=      5-min Rain = 0
KMUS 160245Z 07006KT 16/10 A3002 RMK A01 T01610101  RH  070%=      5-min Rain = 0
KMUS 160250Z 08007KT 16/10 A3002 RMK A01 T01590100  RH  070%=      5-min Rain = 0
KMUS 160255Z 08008KT 16/10 A3001 RMK A01 T01560100  RH  071%=      5-min Rain = 0
KMUS 160300Z 07009KT 16/10 A3001 RMK A01 T01560101  RH  072%=      5-min Rain = 0
KMUS 160305Z 08006KT 16/10 A3002 RMK A01 T01580103  RH  072%=      5-min Rain = 0
KMUS 160310Z 07003KT 16/10 A3003 RMK A01 T01570103  RH  072%=      5-min Rain = 0
KMUS 160315Z 08006KT 16/10 A3003 RMK A01 T01570103  RH  073%=      5-min Rain = 0
KMUS 160320Z 09009KT 16/10 A3002 RMK A01 T01560104  RH  073%=      5-min Rain = 0
KMUS 160325Z 10012KT 15/10 A3002 RMK A01 T01530102  RH  074%=      5-min Rain = 0
KMUS 160330Z 09011KT 15/10 A3002 RMK A01 T01540102  RH  074%=      5-min Rain = 0
KMUS 160335Z 11006G11KT 15/10 A3003 RMK A01 T01540101  RH  073%=      5-min Rain = 0
KMUS 160340Z 31004KT 15/10 A3003 RMK A01 T01530101  RH  073%=      5-min Rain = 0
KMUS 160345Z 28004KT 15/10 A3004 RMK A01 T01520103  RH  075%=      5-min Rain = 0
KMUS 160350Z 16003G8KT 15/10 A3003 RMK A01 T01510101  RH  074%=      5-min Rain = 0
KMUS 160355Z 12005KT 15/10 A3003 RMK A01 T01490100  RH  075%=      5-min Rain = 0
KMUS 160400Z 12006KT 15/10 A3003 RMK A01 T01480098  RH  074%=      5-min Rain = 0
KMUS 160405Z 09004KT 15/10 A3003 RMK A01 T01480097  RH  074%=      5-min Rain = 0
KMUS 160410Z 04003KT 15/10 A3003 RMK A01 T01450097  RH  075%=      5-min Rain = 0
KMUS 160415Z 17001KT 14/10 A3003 RMK A01 T01440096  RH  075%=      5-min Rain = 0
KMUS 160420Z 18003KT 14/09 A3003 RMK A01 T01390093  RH  076%=      5-min Rain = 0
KMUS 160425Z 16003KT 14/09 A3003 RMK A01 T01360092  RH  077%=      5-min Rain = 0
KMUS 160430Z 15004KT 14/09 A3002 RMK A01 T01370092  RH  077%=      5-min Rain = 0
KMUS 160435Z 16005KT 14/09 A3002 RMK A01 T01360091  RH  076%=      5-min Rain = 0
KMUS 160440Z 16007KT 14/09 A3002 RMK A01 T01370092  RH  077%=      5-min Rain = 0
KMUS 160445Z 17007KT 14/09 A3002 RMK A01 T01430094  RH  075%=      5-min Rain = 0
KMUS 160450Z 17004KT 15/09 A3002 RMK A01 T01460093  RH  072%=      5-min Rain = 0
KMUS 160455Z 31002KT 15/09 A3002 RMK A01 T01450090  RH  072%=      5-min Rain = 0

Page generated in 0.009 seconds.